createdAt,value
2023-03-22T00:00:02.740Z,31.23
2023-03-22T00:01:13.438Z,30.02
2023-03-22T00:02:15.211Z,30.92
2023-03-22T00:03:16.969Z,30.65
2023-03-22T00:04:18.539Z,30.55
2023-03-22T00:05:20.072Z,30.77
2023-03-22T00:06:21.716Z,30.55
2023-03-22T00:07:23.276Z,29.77
2023-03-22T00:08:24.882Z,28.23
2023-03-22T00:09:26.601Z,30.55
2023-03-22T00:10:31.144Z,30.42
2023-03-22T00:11:32.704Z,31.20
2023-03-22T00:12:34.329Z,29.58
2023-03-22T00:13:37.368Z,33.00
2023-03-22T00:14:39.031Z,30.75
2023-03-22T00:15:44.768Z,32.88
2023-03-22T00:16:46.498Z,30.90
2023-03-22T00:17:48.281Z,32.78
2023-03-22T00:18:50.025Z,29.80
2023-03-22T00:19:54.495Z,31.00
2023-03-22T00:20:58.343Z,30.17
2023-03-22T00:22:01.285Z,31.35
2023-03-22T00:23:03.033Z,30.77
2023-03-22T00:24:04.782Z,33.33
2023-03-22T00:25:06.655Z,31.77
2023-03-22T00:26:09.979Z,30.58
2023-03-22T00:27:11.776Z,30.75
2023-03-22T00:28:14.870Z,30.88
2023-03-22T00:29:16.433Z,32.50
2023-03-22T00:30:18.306Z,30.05
2023-03-22T00:31:20.075Z,29.67
2023-03-22T00:32:21.693Z,31.92
2023-03-22T00:33:23.858Z,32.67
2023-03-22T00:34:27.182Z,34.10
2023-03-22T00:35:28.998Z,31.77
2023-03-22T00:36:30.693Z,30.58
2023-03-22T00:37:34.452Z,30.92
2023-03-22T00:38:43.851Z,32.40
2023-03-22T00:39:45.890Z,32.20
2023-03-22T00:40:47.555Z,31.38
2023-03-22T00:41:49.166Z,31.60
2023-03-22T00:42:51.252Z,33.22
2023-03-22T00:43:52.816Z,32.40
2023-03-22T00:44:54.378Z,31.95
2023-03-22T00:45:56.116Z,31.77
2023-03-22T00:46:57.695Z,32.72
2023-03-22T00:47:59.326Z,33.90
2023-03-22T00:49:01.004Z,32.15
2023-03-22T00:50:03.138Z,32.05
2023-03-22T00:51:05.188Z,31.50
2023-03-22T00:52:06.758Z,32.65
2023-03-22T00:53:08.385Z,32.08
2023-03-22T00:54:09.961Z,32.00
2023-03-22T00:55:11.551Z,32.72
2023-03-22T00:56:14.447Z,32.40
2023-03-22T00:57:16.440Z,33.30
2023-03-22T00:58:18.041Z,31.52
2023-03-22T00:59:19.619Z,32.78
2023-03-22T01:00:21.333Z,32.00
2023-03-22T01:01:23.117Z,31.98
2023-03-22T01:02:29.760Z,32.28
2023-03-22T01:03:31.460Z,31.50
2023-03-22T01:04:35.789Z,32.20
2023-03-22T01:05:37.827Z,34.00
2023-03-22T01:06:39.460Z,31.85
2023-03-22T01:07:42.053Z,31.95
2023-03-22T01:08:43.803Z,33.60
2023-03-22T01:09:45.795Z,34.25
2023-03-22T01:10:48.646Z,32.92
2023-03-22T01:12:51.928Z,31.23
2023-03-22T01:13:55.086Z,31.98
2023-03-22T01:14:56.680Z,33.22
2023-03-22T01:15:58.345Z,34.70
2023-03-22T01:16:59.963Z,34.15
2023-03-22T01:18:01.869Z,34.05
2023-03-22T01:19:03.750Z,30.88
2023-03-22T01:20:07.078Z,35.33
2023-03-22T01:21:08.895Z,31.85
2023-03-22T01:22:10.534Z,32.70
2023-03-22T01:23:12.069Z,33.40
2023-03-22T01:24:13.632Z,31.10
2023-03-22T01:25:15.626Z,32.78
2023-03-22T01:26:17.185Z,32.75
2023-03-22T01:27:18.773Z,33.97
2023-03-22T01:28:20.777Z,31.65
2023-03-22T01:29:22.927Z,32.08
2023-03-22T01:30:24.995Z,31.67
2023-03-22T01:31:26.603Z,33.30
2023-03-22T01:32:28.221Z,30.67
2023-03-22T01:33:30.436Z,31.23
2023-03-22T01:34:32.094Z,32.08
2023-03-22T01:35:35.621Z,32.45
2023-03-22T01:36:37.488Z,32.97
2023-03-22T01:37:39.165Z,32.80
2023-03-22T01:38:41.077Z,31.63
2023-03-22T01:39:42.663Z,31.40
2023-03-22T01:40:44.250Z,32.10
2023-03-22T01:41:45.839Z,33.10
2023-03-22T01:42:47.566Z,32.55
2023-03-22T01:44:09.125Z,33.33
2023-03-22T01:45:13.515Z,32.83
2023-03-22T01:46:15.159Z,32.15
2023-03-22T01:47:16.815Z,31.88
2023-03-22T01:48:34.271Z,31.40
2023-03-22T01:49:36.001Z,31.27
2023-03-22T01:50:39.654Z,30.67
2023-03-22T01:51:43.724Z,31.75
2023-03-22T01:52:45.648Z,32.30
2023-03-22T01:54:00.525Z,31.33
2023-03-22T01:55:02.499Z,33.35
2023-03-22T01:56:04.486Z,30.55
2023-03-22T01:57:06.607Z,31.30
2023-03-22T01:58:08.576Z,32.15
2023-03-22T01:59:12.838Z,32.10
2023-03-22T02:00:16.108Z,32.30
2023-03-22T02:01:17.854Z,33.38
2023-03-22T02:02:20.076Z,34.95
2023-03-22T02:03:32.519Z,34.15
2023-03-22T02:04:39.378Z,33.00
2023-03-22T02:05:41.248Z,33.22
2023-03-22T02:06:43.011Z,31.17
2023-03-22T02:07:45.562Z,30.63
2023-03-22T02:08:48.180Z,31.10
2023-03-22T02:09:49.744Z,31.42
2023-03-22T02:10:51.799Z,31.60
2023-03-22T02:12:19.592Z,33.42
2023-03-22T02:13:39.614Z,30.92
2023-03-22T02:15:05.901Z,30.02
2023-03-22T02:16:29.850Z,31.02
2023-03-22T02:17:54.439Z,31.63
2023-03-22T02:19:06.351Z,32.10
2023-03-22T02:20:31.882Z,31.80
2023-03-22T02:22:04.410Z,30.95
2023-03-22T02:23:43.478Z,29.58
2023-03-22T02:25:01.769Z,30.90
2023-03-22T02:26:09.494Z,28.55
2023-03-22T02:27:19.570Z,30.25
2023-03-22T02:28:32.416Z,28.77
2023-03-22T02:30:16.346Z,28.77
2023-03-22T02:32:10.546Z,29.25
2023-03-22T02:33:44.330Z,28.88
2023-03-22T02:35:13.227Z,28.17
2023-03-22T02:36:14.767Z,30.08
2023-03-22T02:37:25.361Z,28.75
2023-03-22T02:38:57.931Z,27.73
2023-03-22T02:40:30.391Z,27.40
2023-03-22T02:42:01.001Z,26.80
2023-03-22T02:43:31.013Z,27.92
2023-03-22T02:44:41.831Z,27.75
2023-03-22T02:46:03.778Z,28.55
2023-03-22T02:47:07.405Z,29.45
2023-03-22T02:48:14.019Z,26.48
2023-03-22T02:49:33.273Z,27.02
2023-03-22T02:50:48.059Z,26.73
2023-03-22T02:51:59.461Z,27.85
2023-03-22T02:53:19.235Z,28.08
2023-03-22T02:54:26.483Z,26.92
2023-03-22T02:55:58.531Z,26.42
2023-03-22T02:57:05.921Z,26.77
2023-03-22T02:58:14.526Z,27.10
2023-03-22T02:59:17.883Z,26.02
2023-03-22T03:00:19.904Z,27.30
2023-03-22T03:01:26.879Z,26.15
2023-03-22T03:02:30.840Z,27.10
2023-03-22T03:03:33.510Z,25.92
2023-03-22T03:04:44.614Z,26.42
2023-03-22T03:05:51.038Z,27.38
2023-03-22T03:06:55.475Z,26.92
2023-03-22T03:08:00.703Z,28.45
2023-03-22T03:09:05.151Z,27.08
2023-03-22T03:10:07.871Z,28.17
2023-03-22T03:11:09.639Z,27.55
2023-03-22T03:12:23.570Z,27.48
2023-03-22T03:13:25.448Z,27.98
2023-03-22T03:14:31.889Z,26.42
2023-03-22T03:15:33.537Z,26.42
2023-03-22T03:16:36.811Z,27.42
2023-03-22T03:17:54.105Z,26.60
2023-03-22T03:19:27.852Z,24.77
2023-03-22T03:20:46.678Z,28.25
2023-03-22T03:22:20.617Z,30.02
2023-03-22T03:23:49.829Z,25.33
2023-03-22T03:25:09.481Z,28.10
2023-03-22T03:26:35.674Z,26.88
2023-03-22T03:27:50.027Z,26.75
2023-03-22T03:29:21.657Z,26.30
2023-03-22T03:30:31.441Z,25.17
2023-03-22T03:31:56.231Z,25.58
2023-03-22T03:33:03.264Z,25.40
2023-03-22T03:34:37.812Z,25.42
2023-03-22T03:35:58.723Z,25.50
2023-03-22T03:37:05.723Z,25.98
2023-03-22T03:38:14.926Z,25.23
2023-03-22T03:39:18.497Z,25.05
2023-03-22T03:40:32.642Z,24.88
2023-03-22T03:41:34.990Z,24.23
2023-03-22T03:42:46.029Z,25.20
2023-03-22T03:43:48.883Z,23.95
2023-03-22T03:44:50.737Z,23.65
2023-03-22T03:45:53.810Z,22.45
2023-03-22T03:46:56.422Z,22.92
2023-03-22T03:48:01.178Z,23.67
2023-03-22T03:49:04.244Z,24.13
2023-03-22T03:50:07.494Z,22.08
2023-03-22T03:51:09.118Z,20.92
2023-03-22T03:52:10.757Z,20.25
2023-03-22T03:53:12.352Z,21.58
2023-03-22T03:54:13.897Z,21.02
2023-03-22T03:55:16.163Z,20.70
2023-03-22T03:56:17.822Z,20.55
2023-03-22T03:57:19.462Z,21.70
2023-03-22T03:58:21.081Z,19.70
2023-03-22T03:59:22.600Z,19.38
2023-03-22T04:00:24.205Z,20.23
2023-03-22T04:01:26.577Z,19.92
2023-03-22T04:02:28.208Z,19.50
2023-03-22T04:03:30.479Z,19.23
2023-03-22T04:04:32.197Z,19.38
2023-03-22T04:05:34.195Z,20.40
2023-03-22T04:06:35.753Z,20.80
2023-03-22T04:07:38.120Z,21.33
2023-03-22T04:08:39.672Z,20.63
2023-03-22T04:09:42.370Z,19.90
2023-03-22T04:10:48.834Z,20.63
2023-03-22T04:11:50.549Z,20.92
2023-03-22T04:12:52.158Z,20.02
2023-03-22T04:13:53.698Z,20.75
2023-03-22T04:14:56.168Z,21.35
2023-03-22T04:15:58.177Z,20.48
2023-03-22T04:16:59.922Z,20.02
2023-03-22T04:18:01.602Z,20.95
2023-03-22T04:19:03.288Z,19.23
2023-03-22T04:20:06.639Z,20.63
2023-03-22T04:21:08.268Z,19.75
2023-03-22T04:22:14.650Z,19.88
2023-03-22T04:23:16.396Z,18.48
2023-03-22T04:24:18.032Z,20.20
2023-03-22T04:25:21.947Z,20.58
2023-03-22T04:26:26.138Z,18.83
2023-03-22T04:27:28.291Z,19.75
2023-03-22T04:28:29.899Z,19.90
2023-03-22T04:29:32.301Z,19.55
2023-03-22T04:30:36.437Z,20.98
2023-03-22T04:31:39.168Z,20.20
2023-03-22T04:32:40.794Z,20.35
2023-03-22T04:33:46.936Z,19.15
2023-03-22T04:34:49.824Z,19.70
2023-03-22T04:37:02.611Z,18.02
2023-03-22T04:38:04.253Z,19.80
2023-03-22T04:39:09.552Z,18.58
2023-03-22T04:40:16.912Z,19.30
2023-03-22T04:41:19.033Z,18.90
2023-03-22T04:42:20.956Z,18.73
2023-03-22T04:43:23.010Z,19.52
2023-03-22T04:44:24.582Z,19.27
2023-03-22T04:45:29.368Z,19.30
2023-03-22T04:46:32.740Z,20.52
2023-03-22T04:47:34.359Z,19.77
2023-03-22T04:48:39.261Z,18.85
2023-03-22T04:49:41.099Z,18.50
2023-03-22T04:50:43.083Z,19.17
2023-03-22T04:51:44.695Z,19.40
2023-03-22T04:52:48.041Z,18.20
2023-03-22T04:53:49.669Z,19.35
2023-03-22T04:54:51.501Z,18.80
2023-03-22T04:55:59.501Z,18.65
2023-03-22T04:57:01.160Z,18.27
2023-03-22T04:58:03.153Z,18.33
2023-03-22T04:59:04.739Z,17.95
2023-03-22T05:00:08.652Z,19.92
2023-03-22T05:01:12.508Z,18.95
2023-03-22T05:02:14.146Z,18.23
2023-03-22T05:03:19.418Z,17.90
2023-03-22T05:04:21.243Z,17.35
2023-03-22T05:05:22.861Z,17.92
2023-03-22T05:06:24.495Z,18.35
2023-03-22T05:07:26.029Z,17.85
2023-03-22T05:08:29.540Z,20.50
2023-03-22T05:09:31.177Z,17.48
2023-03-22T05:10:32.751Z,17.58
2023-03-22T05:11:34.608Z,17.00
2023-03-22T05:12:36.142Z,19.88
2023-03-22T05:13:37.830Z,18.85
2023-03-22T05:14:39.480Z,18.65
2023-03-22T05:15:41.898Z,18.30
2023-03-22T05:16:43.613Z,18.70
2023-03-22T05:17:45.402Z,19.20
2023-03-22T05:18:47.079Z,18.88
2023-03-22T05:19:48.645Z,18.80
2023-03-22T05:20:51.196Z,18.63
2023-03-22T05:21:58.497Z,18.05
2023-03-22T05:23:02.985Z,18.58
2023-03-22T05:24:04.844Z,18.48
2023-03-22T05:25:08.439Z,17.50
2023-03-22T05:26:10.571Z,19.00
2023-03-22T05:27:14.360Z,17.95
2023-03-22T05:28:19.622Z,19.38
2023-03-22T05:29:22.364Z,19.05
2023-03-22T05:30:24.337Z,19.52
2023-03-22T05:31:28.784Z,17.75
2023-03-22T05:32:30.349Z,17.45
2023-03-22T05:33:32.108Z,19.05
2023-03-22T05:34:36.111Z,17.08
2023-03-22T05:35:40.163Z,18.55
2023-03-22T05:36:41.905Z,17.88
2023-03-22T05:37:43.638Z,17.70
2023-03-22T05:38:46.653Z,18.98
2023-03-22T05:39:48.343Z,18.23
2023-03-22T05:40:49.906Z,19.05
2023-03-22T05:41:51.525Z,19.05
2023-03-22T05:42:53.997Z,16.90
2023-03-22T05:43:55.632Z,17.25
2023-03-22T05:44:57.260Z,18.55
2023-03-22T05:45:58.918Z,17.48
2023-03-22T05:47:00.637Z,19.00
2023-03-22T05:48:02.626Z,17.70
2023-03-22T05:49:04.335Z,17.60
2023-03-22T05:50:10.833Z,16.48
2023-03-22T05:51:17.672Z,17.38
2023-03-22T05:52:19.285Z,17.48
2023-03-22T05:53:20.883Z,16.92
2023-03-22T05:54:22.453Z,18.02
2023-03-22T05:55:24.085Z,17.33
2023-03-22T05:56:25.999Z,16.88
2023-03-22T05:57:30.112Z,15.85
2023-03-22T05:58:32.214Z,15.93
2023-03-22T05:59:33.904Z,17.85
2023-03-22T06:00:35.894Z,16.70
2023-03-22T06:01:37.642Z,17.95
2023-03-22T06:02:40.665Z,15.73
2023-03-22T06:03:42.706Z,16.65
2023-03-22T06:04:44.241Z,16.90
2023-03-22T06:05:46.701Z,15.93
2023-03-22T06:06:48.326Z,16.23
2023-03-22T06:07:49.959Z,15.27
2023-03-22T06:08:51.569Z,15.48
2023-03-22T06:09:53.185Z,15.82
2023-03-22T06:10:54.964Z,16.77
2023-03-22T06:11:56.707Z,16.27
2023-03-22T06:12:58.313Z,15.35
2023-03-22T06:13:59.946Z,14.80
2023-03-22T06:15:01.582Z,15.68
2023-03-22T06:16:04.754Z,16.13
2023-03-22T06:17:06.510Z,15.55
2023-03-22T06:18:08.083Z,15.23
2023-03-22T06:19:09.754Z,14.98
2023-03-22T06:20:12.604Z,14.93
2023-03-22T06:21:14.203Z,14.80
2023-03-22T06:22:16.195Z,15.43
2023-03-22T06:23:17.846Z,15.80
2023-03-22T06:24:19.809Z,15.98
2023-03-22T06:25:21.395Z,15.43
2023-03-22T06:26:22.991Z,16.48
2023-03-22T06:27:24.598Z,15.60
2023-03-22T06:28:29.902Z,14.65
2023-03-22T06:29:31.569Z,15.10
2023-03-22T06:30:33.182Z,14.88
2023-03-22T06:31:34.765Z,15.13
2023-03-22T06:32:36.363Z,15.95
2023-03-22T06:33:37.932Z,15.07
2023-03-22T06:34:39.525Z,15.95
2023-03-22T06:35:41.252Z,14.80
2023-03-22T06:36:43.206Z,15.35
2023-03-22T06:37:44.781Z,16.08
2023-03-22T06:38:46.382Z,16.13
2023-03-22T06:39:47.987Z,15.00
2023-03-22T06:40:49.624Z,14.88
2023-03-22T06:41:51.728Z,15.20
2023-03-22T06:42:54.526Z,16.58
2023-03-22T06:44:57.732Z,17.23
2023-03-22T06:45:59.394Z,16.98
2023-03-22T06:47:01.249Z,16.48
2023-03-22T06:48:03.252Z,17.58
2023-03-22T06:49:05.056Z,17.35
2023-03-22T06:50:07.206Z,18.58
2023-03-22T06:51:09.227Z,17.92
2023-03-22T06:52:11.014Z,17.38
2023-03-22T06:53:12.657Z,18.25
2023-03-22T06:54:14.966Z,16.95
2023-03-22T06:55:16.789Z,19.23
2023-03-22T06:56:18.385Z,18.45
2023-03-22T06:57:19.944Z,18.13
2023-03-22T06:58:21.551Z,18.70
2023-03-22T06:59:23.206Z,19.92
2023-03-22T07:00:24.770Z,18.27
2023-03-22T07:01:26.705Z,19.25
2023-03-22T07:02:28.568Z,19.75
2023-03-22T07:03:30.254Z,19.73
2023-03-22T07:04:33.297Z,20.08
2023-03-22T07:05:35.022Z,18.70
2023-03-22T07:06:36.722Z,19.05
2023-03-22T07:07:38.538Z,20.52
2023-03-22T07:08:40.482Z,19.08
2023-03-22T07:09:42.211Z,19.05
2023-03-22T07:10:44.036Z,19.00
2023-03-22T07:11:45.657Z,19.98
2023-03-22T07:12:47.241Z,19.50
2023-03-22T07:13:49.156Z,18.65
2023-03-22T07:14:50.921Z,19.85
2023-03-22T07:16:02.381Z,18.95
2023-03-22T07:17:04.015Z,19.75
2023-03-22T07:18:08.014Z,19.23
2023-03-22T07:19:09.597Z,19.25
2023-03-22T07:20:11.525Z,18.95
2023-03-22T07:21:13.151Z,17.88
2023-03-22T07:22:14.756Z,17.30
2023-03-22T07:23:16.706Z,16.70
2023-03-22T07:24:18.274Z,15.93
2023-03-22T07:25:20.491Z,15.57
2023-03-22T07:26:22.090Z,14.52
2023-03-22T07:27:23.871Z,15.43
2023-03-22T07:28:25.516Z,14.07
2023-03-22T07:29:27.463Z,14.32
2023-03-22T07:30:29.061Z,13.75
2023-03-22T07:31:31.662Z,14.13
2023-03-22T07:32:33.342Z,13.60
2023-03-22T07:33:35.005Z,14.77
2023-03-22T07:34:36.674Z,13.65
2023-03-22T07:35:38.716Z,14.40
2023-03-22T07:36:40.424Z,13.32
2023-03-22T07:37:42.139Z,13.57
2023-03-22T07:38:43.728Z,14.57
2023-03-22T07:39:45.417Z,12.27
2023-03-22T07:40:46.974Z,14.60
2023-03-22T07:41:48.647Z,14.48
2023-03-22T07:42:50.685Z,13.82
2023-03-22T07:43:56.848Z,14.68
2023-03-22T07:45:05.340Z,15.95
2023-03-22T07:46:07.094Z,15.30
2023-03-22T07:47:08.770Z,15.50
2023-03-22T07:48:13.041Z,14.73
2023-03-22T07:49:14.971Z,15.32
2023-03-22T07:50:17.763Z,15.63
2023-03-22T07:52:21.216Z,14.30
2023-03-22T07:53:23.001Z,15.20
2023-03-22T07:54:33.539Z,15.07
2023-03-22T07:55:36.386Z,15.45
2023-03-22T07:56:38.092Z,15.13
2023-03-22T07:57:39.804Z,15.23
2023-03-22T07:58:41.627Z,15.45
2023-03-22T07:59:44.328Z,16.33
2023-03-22T08:00:46.150Z,16.20
2023-03-22T08:01:47.901Z,15.48
2023-03-22T08:02:49.628Z,17.02
2023-03-22T08:03:51.335Z,16.45
2023-03-22T08:04:56.506Z,17.38
2023-03-22T08:06:04.469Z,17.75
2023-03-22T08:07:10.082Z,15.93
2023-03-22T08:08:13.695Z,17.02
2023-03-22T08:09:15.812Z,16.08
2023-03-22T08:10:17.901Z,15.50
2023-03-22T08:11:19.527Z,16.27
2023-03-22T08:12:21.554Z,15.95
2023-03-22T08:13:23.320Z,14.55
2023-03-22T08:14:35.676Z,15.13
2023-03-22T08:15:38.830Z,15.77
2023-03-22T08:16:41.804Z,16.48
2023-03-22T08:17:43.577Z,15.13
2023-03-22T08:18:45.736Z,15.07
2023-03-22T08:19:47.341Z,14.65
2023-03-22T08:20:56.646Z,14.00
2023-03-22T08:21:58.583Z,13.88
2023-03-22T08:23:01.188Z,14.70
2023-03-22T08:24:03.741Z,12.48
2023-03-22T08:25:05.778Z,12.68
2023-03-22T08:26:07.366Z,13.48
2023-03-22T08:27:08.992Z,13.45
2023-03-22T08:28:10.779Z,13.25
2023-03-22T08:29:12.451Z,13.45
2023-03-22T08:30:14.598Z,11.82
2023-03-22T08:31:17.635Z,12.23
2023-03-22T08:32:19.300Z,12.48
2023-03-22T08:33:23.741Z,12.88
2023-03-22T08:34:25.781Z,13.82
2023-03-22T08:35:27.543Z,13.25
2023-03-22T08:36:29.177Z,13.82
2023-03-22T08:37:30.719Z,12.38
2023-03-22T08:38:32.436Z,12.73
2023-03-22T08:39:34.485Z,14.20
2023-03-22T08:40:36.196Z,12.00
2023-03-22T08:41:39.213Z,13.07
2023-03-22T08:42:40.802Z,12.88
2023-03-22T08:43:42.876Z,12.98
2023-03-22T08:44:44.447Z,12.20
2023-03-22T08:45:47.728Z,13.82
2023-03-22T08:46:49.432Z,12.07
2023-03-22T08:47:51.144Z,13.73
2023-03-22T08:48:53.276Z,12.43
2023-03-22T08:49:54.874Z,13.45
2023-03-22T08:50:57.538Z,12.25
2023-03-22T08:51:59.254Z,12.60
2023-03-22T08:53:01.095Z,12.73
2023-03-22T08:54:04.624Z,12.65
2023-03-22T08:55:08.407Z,12.13
2023-03-22T08:56:10.051Z,12.68
2023-03-22T08:57:11.682Z,12.73
2023-03-22T08:58:14.721Z,12.00
2023-03-22T08:59:16.682Z,11.27
2023-03-22T09:00:18.937Z,11.98
2023-03-22T09:01:21.308Z,11.55
2023-03-22T09:02:23.376Z,11.98
2023-03-22T09:03:25.077Z,11.18
2023-03-22T09:04:27.350Z,11.40
2023-03-22T09:05:28.954Z,12.80
2023-03-22T09:06:30.955Z,13.00
2023-03-22T09:07:32.553Z,12.10
2023-03-22T09:08:34.368Z,13.30
2023-03-22T09:09:36.234Z,11.20
2023-03-22T09:10:40.986Z,12.77
2023-03-22T09:11:42.969Z,12.15
2023-03-22T09:12:44.610Z,12.88
2023-03-22T09:13:46.276Z,12.70
2023-03-22T09:14:49.828Z,14.70
2023-03-22T09:15:52.326Z,13.30
2023-03-22T09:16:53.965Z,12.45
2023-03-22T09:17:55.866Z,13.40
2023-03-22T09:18:57.482Z,13.75
2023-03-22T09:20:11.605Z,13.88
2023-03-22T09:21:13.978Z,13.23
2023-03-22T09:22:15.547Z,13.75
2023-03-22T09:23:17.142Z,14.10
2023-03-22T09:24:18.916Z,14.25
2023-03-22T09:25:21.474Z,13.93
2023-03-22T09:26:23.883Z,16.40
2023-03-22T09:27:25.849Z,14.40
2023-03-22T09:28:28.450Z,16.75
2023-03-22T09:29:30.194Z,16.02
2023-03-22T09:30:31.739Z,17.33
2023-03-22T09:31:33.479Z,16.15
2023-03-22T09:32:40.554Z,16.90
2023-03-22T09:33:42.432Z,15.65
2023-03-22T09:34:44.077Z,16.30
2023-03-22T09:35:45.944Z,15.70
2023-03-22T09:36:47.711Z,15.93
2023-03-22T09:37:53.310Z,16.25
2023-03-22T09:38:55.119Z,18.42
2023-03-22T09:39:57.714Z,18.60
2023-03-22T09:41:04.673Z,18.85
2023-03-22T09:42:21.866Z,17.27
2023-03-22T09:43:23.539Z,18.58
2023-03-22T09:44:31.677Z,18.73
2023-03-22T09:45:41.904Z,18.75
2023-03-22T09:46:50.204Z,17.98
2023-03-22T09:47:55.998Z,19.15
2023-03-22T09:49:01.652Z,18.77
2023-03-22T09:50:12.632Z,19.15
2023-03-22T09:51:39.439Z,19.27
2023-03-22T09:52:43.592Z,19.15
2023-03-22T09:53:45.404Z,20.33
2023-03-22T09:54:47.467Z,20.65
2023-03-22T09:56:00.936Z,20.27
2023-03-22T09:57:08.625Z,21.77
2023-03-22T09:58:28.465Z,19.67
2023-03-22T10:00:12.119Z,20.55
2023-03-22T10:01:38.853Z,19.10
2023-03-22T10:02:46.373Z,20.85
2023-03-22T10:03:57.142Z,20.13
2023-03-22T10:05:22.830Z,19.55
2023-03-22T10:06:28.209Z,20.08
2023-03-22T10:07:40.159Z,19.80
2023-03-22T10:09:03.136Z,19.75
2023-03-22T10:10:18.205Z,19.60
2023-03-22T10:13:05.447Z,20.13
2023-03-22T10:15:36.896Z,20.13
2023-03-22T10:16:39.852Z,19.15
2023-03-22T10:17:49.557Z,21.42
2023-03-22T10:18:57.012Z,20.17
2023-03-22T10:20:08.496Z,21.50
2023-03-22T10:21:12.320Z,21.85
2023-03-22T10:22:17.310Z,20.88
2023-03-22T10:23:28.743Z,21.20
2023-03-22T10:24:35.265Z,20.00
2023-03-22T10:25:40.478Z,21.40
2023-03-22T10:26:46.405Z,21.45
2023-03-22T10:27:50.556Z,21.50
2023-03-22T10:29:22.101Z,23.25
2023-03-22T10:30:27.407Z,23.30
2023-03-22T10:31:30.445Z,23.60
2023-03-22T10:32:42.813Z,22.45
2023-03-22T10:33:59.230Z,20.70
2023-03-22T10:35:00.956Z,22.67
2023-03-22T10:36:04.024Z,22.45
2023-03-22T10:37:07.329Z,22.88
2023-03-22T10:38:18.746Z,22.63
2023-03-22T10:39:34.240Z,23.52
2023-03-22T10:40:37.087Z,23.00
2023-03-22T10:42:41.451Z,20.00
2023-03-22T10:43:43.869Z,23.15
2023-03-22T10:45:27.105Z,22.25
2023-03-22T10:46:39.489Z,22.35
2023-03-22T10:47:48.237Z,23.08
2023-03-22T10:48:58.332Z,23.80
2023-03-22T10:50:04.519Z,23.52
2023-03-22T10:51:07.764Z,23.95
2023-03-22T10:52:26.508Z,21.95
2023-03-22T10:53:31.624Z,23.70
2023-03-22T10:54:33.211Z,23.17
2023-03-22T10:55:43.089Z,23.48
2023-03-22T10:56:45.900Z,24.55
2023-03-22T10:58:12.083Z,23.52
2023-03-22T10:59:49.421Z,24.88
2023-03-22T11:01:06.056Z,24.52
2023-03-22T11:02:28.857Z,27.10
2023-03-22T11:03:40.500Z,24.90
2023-03-22T11:04:47.412Z,23.85
2023-03-22T11:05:58.872Z,25.20
2023-03-22T11:07:00.534Z,25.80
2023-03-22T11:08:02.739Z,24.27
2023-03-22T11:09:17.409Z,24.58
2023-03-22T11:10:29.538Z,24.83
2023-03-22T11:11:36.742Z,25.42
2023-03-22T11:12:42.181Z,23.70
2023-03-22T11:13:54.939Z,24.77
2023-03-22T11:14:56.818Z,23.75
2023-03-22T11:16:02.456Z,26.60
2023-03-22T11:17:06.941Z,23.27
2023-03-22T11:18:14.409Z,24.38
2023-03-22T11:19:26.422Z,24.88
2023-03-22T11:20:30.640Z,23.92
2023-03-22T11:21:33.646Z,25.85
2023-03-22T11:22:39.198Z,24.63
2023-03-22T11:23:48.721Z,25.30
2023-03-22T11:24:51.823Z,24.23
2023-03-22T11:25:56.810Z,23.48
2023-03-22T11:27:17.150Z,24.20
2023-03-22T11:28:28.195Z,24.90
2023-03-22T11:29:43.624Z,28.40
2023-03-22T11:31:19.217Z,24.08
2023-03-22T11:32:22.105Z,24.65
2023-03-22T11:34:31.002Z,24.98
2023-03-22T11:35:32.717Z,25.13
2023-03-22T11:36:44.041Z,24.70
2023-03-22T11:37:51.513Z,26.60
2023-03-22T11:39:00.965Z,24.85
2023-03-22T11:40:05.032Z,25.02
2023-03-22T11:41:30.904Z,24.48
2023-03-22T11:42:35.892Z,22.85
2023-03-22T11:43:42.392Z,25.40
2023-03-22T11:44:44.765Z,23.25
2023-03-22T11:45:49.825Z,24.50
2023-03-22T11:47:00.974Z,23.95
2023-03-22T11:48:13.224Z,24.95
2023-03-22T11:49:17.696Z,24.05
2023-03-22T11:50:31.133Z,24.02
2023-03-22T11:51:36.199Z,23.48
2023-03-22T11:52:37.932Z,23.88
2023-03-22T11:53:43.674Z,26.40
2023-03-22T11:54:47.225Z,26.85
2023-03-22T11:55:51.442Z,23.98
2023-03-22T11:56:58.203Z,23.00
2023-03-22T11:58:02.219Z,24.45
2023-03-22T11:59:36.662Z,22.65
2023-03-22T12:00:40.117Z,23.20
2023-03-22T12:02:34.091Z,23.33
2023-03-22T12:03:41.915Z,22.40
2023-03-22T12:04:46.916Z,25.20
2023-03-22T12:05:51.254Z,24.67
2023-03-22T12:06:56.873Z,23.55
2023-03-22T12:08:15.802Z,24.77
2023-03-22T12:09:54.674Z,22.77
2023-03-22T12:11:06.273Z,23.13
2023-03-22T12:12:18.056Z,23.20
2023-03-22T12:13:53.935Z,22.90
2023-03-22T12:15:06.442Z,23.30
2023-03-22T12:16:12.233Z,21.67
2023-03-22T12:17:24.326Z,21.85
2023-03-22T12:18:41.540Z,18.75
2023-03-22T12:19:52.402Z,20.73
2023-03-22T12:20:58.951Z,22.00
2023-03-22T12:22:01.202Z,20.55
2023-03-22T12:23:09.522Z,22.67
2023-03-22T12:24:25.368Z,21.20
2023-03-22T12:25:36.110Z,21.20
2023-03-22T12:26:39.069Z,22.33
2023-03-22T12:28:58.988Z,20.50
2023-03-22T12:30:17.823Z,24.42
2023-03-22T12:31:24.361Z,21.02
2023-03-22T12:32:34.689Z,22.60
2023-03-22T12:33:52.214Z,21.55
2023-03-22T12:35:01.325Z,21.05
2023-03-22T12:36:17.028Z,22.10
2023-03-22T12:37:24.336Z,22.00
2023-03-22T12:38:50.459Z,19.75
2023-03-22T12:39:59.524Z,20.80
2023-03-22T12:41:05.612Z,20.10
2023-03-22T12:42:47.880Z,18.85
2023-03-22T12:43:58.941Z,19.02
2023-03-22T12:45:24.937Z,21.92
2023-03-22T12:46:31.549Z,21.00
2023-03-22T12:47:46.006Z,21.60
2023-03-22T12:49:23.075Z,23.75
2023-03-22T12:50:39.297Z,20.92
2023-03-22T12:51:43.171Z,23.08
2023-03-22T12:52:49.419Z,19.52
2023-03-22T12:53:56.887Z,18.05
2023-03-22T12:55:00.819Z,17.52
2023-03-22T12:56:03.044Z,18.02
2023-03-22T12:57:06.151Z,16.80
2023-03-22T12:58:09.987Z,18.23
2023-03-22T12:59:22.071Z,17.88
2023-03-22T13:00:33.912Z,17.95
2023-03-22T13:01:44.098Z,16.88
2023-03-22T13:03:18.460Z,18.88
2023-03-22T13:04:32.205Z,20.35
2023-03-22T13:05:36.456Z,18.48
2023-03-22T13:06:46.688Z,21.30
2023-03-22T13:07:48.181Z,20.17
2023-03-22T13:09:18.311Z,18.55
2023-03-22T13:10:32.972Z,17.17
2023-03-22T13:11:34.974Z,18.13
2023-03-22T13:12:36.676Z,17.88
2023-03-22T13:13:46.344Z,19.40
2023-03-22T13:14:56.661Z,15.20
2023-03-22T13:16:13.568Z,15.73
2023-03-22T13:17:39.477Z,18.20
2023-03-22T13:18:43.897Z,15.80
2023-03-22T13:20:00.528Z,15.10
2023-03-22T13:21:19.281Z,15.40
2023-03-22T13:22:30.815Z,15.43
2023-03-22T13:23:32.827Z,15.80
2023-03-22T13:24:34.935Z,14.80
2023-03-22T13:25:39.533Z,15.32
2023-03-22T13:26:47.522Z,15.27
2023-03-22T13:27:56.837Z,15.75
2023-03-22T13:29:01.137Z,14.63
2023-03-22T13:30:08.440Z,15.82
2023-03-22T13:31:32.260Z,12.25
2023-03-22T13:32:34.581Z,15.20
2023-03-22T13:33:37.082Z,14.60
2023-03-22T13:34:45.681Z,15.73
2023-03-22T13:35:54.410Z,16.90
2023-03-22T13:36:57.038Z,13.55
2023-03-22T13:38:07.003Z,16.00
2023-03-22T13:39:12.511Z,18.13
2023-03-22T13:40:26.137Z,15.73
2023-03-22T13:41:32.922Z,16.85
2023-03-22T13:42:38.809Z,14.45
2023-03-22T13:43:43.384Z,15.85
2023-03-22T13:44:46.984Z,14.10
2023-03-22T13:46:03.890Z,17.00
2023-03-22T13:47:09.598Z,16.25
2023-03-22T13:48:27.618Z,14.02
2023-03-22T13:49:42.168Z,14.30
2023-03-22T13:50:43.935Z,15.48
2023-03-22T13:51:46.075Z,14.18
2023-03-22T13:53:15.818Z,14.70
2023-03-22T13:54:28.810Z,14.95
2023-03-22T13:55:49.005Z,13.73
2023-03-22T13:57:02.277Z,14.02
2023-03-22T13:58:05.905Z,15.32
2023-03-22T13:59:12.711Z,16.20
2023-03-22T14:00:34.458Z,14.80
2023-03-22T14:01:39.645Z,12.65
2023-03-22T14:02:42.928Z,14.82
2023-03-22T14:03:47.662Z,15.77
2023-03-22T14:04:56.225Z,14.65
2023-03-22T14:06:04.635Z,14.05
2023-03-22T14:07:24.426Z,15.98
2023-03-22T14:08:29.374Z,15.60
2023-03-22T14:09:44.867Z,15.13
2023-03-22T14:10:52.926Z,15.02
2023-03-22T14:12:09.932Z,13.88
2023-03-22T14:13:36.223Z,14.00
2023-03-22T14:14:43.191Z,13.43
2023-03-22T14:15:56.697Z,14.82
2023-03-22T14:17:21.502Z,15.90
2023-03-22T14:18:30.629Z,15.85
2023-03-22T14:19:35.895Z,15.20
2023-03-22T14:20:39.520Z,15.35
2023-03-22T14:21:46.946Z,14.35
2023-03-22T14:52:52.263Z,14.52
2023-03-22T14:53:54.277Z,13.68
2023-03-22T14:55:01.984Z,15.15